createdAt,value
2022-12-29T00:01:30.915Z,71.30
2022-12-29T00:03:04.690Z,71.40
2022-12-29T00:04:38.086Z,71.40
2022-12-29T00:06:11.091Z,71.20
2022-12-29T00:07:44.299Z,71.30
2022-12-29T00:09:17.537Z,71.40
2022-12-29T00:10:50.836Z,71.40
2022-12-29T00:12:24.162Z,71.20
2022-12-29T00:14:19.233Z,71.30
2022-12-29T00:15:53.735Z,71.20
2022-12-29T00:17:27.015Z,71.30
2022-12-29T00:18:59.728Z,72.10
2022-12-29T00:20:54.414Z,71.30
2022-12-29T00:22:46.135Z,71.40
2022-12-29T00:24:48.242Z,71.40
2022-12-29T00:26:39.505Z,71.50
2022-12-29T00:28:30.565Z,71.30
2022-12-29T00:30:28.742Z,71.40
2022-12-29T00:32:19.760Z,71.60
2022-12-29T00:34:10.738Z,71.40
2022-12-29T00:35:49.845Z,71.40
2022-12-29T00:37:43.263Z,71.50
2022-12-29T00:39:49.199Z,71.40
2022-12-29T00:41:40.057Z,72.30
2022-12-29T00:43:30.902Z,71.40
2022-12-29T00:45:09.829Z,71.50
2022-12-29T00:46:44.965Z,71.50
2022-12-29T00:48:37.732Z,71.50
2022-12-29T00:50:11.415Z,71.50
2022-12-29T00:51:44.609Z,71.60
2022-12-29T00:53:18.106Z,71.50
2022-12-29T00:54:51.325Z,71.70
2022-12-29T00:56:23.679Z,71.50
2022-12-29T00:57:57.131Z,71.40
2022-12-29T00:59:30.482Z,71.40
2022-12-29T01:01:07.731Z,71.50
2022-12-29T01:02:41.124Z,71.80
2022-12-29T01:04:15.528Z,71.60
2022-12-29T01:05:51.203Z,71.80
2022-12-29T01:07:25.619Z,71.50
2022-12-29T01:09:16.389Z,71.40
2022-12-29T01:11:01.734Z,71.60
2022-12-29T01:12:45.703Z,71.80
2022-12-29T01:14:20.536Z,71.80
2022-12-29T01:15:53.187Z,71.80
2022-12-29T01:17:30.906Z,71.70
2022-12-29T01:19:09.090Z,71.70
2022-12-29T01:20:45.659Z,71.70
2022-12-29T01:22:18.932Z,71.60
2022-12-29T01:23:51.199Z,71.70
2022-12-29T01:25:24.415Z,71.60
2022-12-29T01:26:56.833Z,71.70
2022-12-29T01:28:30.012Z,71.60
2022-12-29T01:30:03.237Z,71.50
2022-12-29T01:31:42.411Z,71.40
2022-12-29T01:33:17.381Z,71.40
2022-12-29T01:34:51.638Z,71.40
2022-12-29T01:36:25.752Z,71.40
2022-12-29T01:37:59.565Z,71.40
2022-12-29T01:39:32.832Z,71.50
2022-12-29T01:41:06.969Z,71.40
2022-12-29T01:42:40.706Z,71.60
2022-12-29T01:44:54.947Z,71.50
2022-12-29T01:46:38.297Z,71.70
2022-12-29T01:48:12.420Z,71.60
2022-12-29T01:49:47.243Z,71.60
2022-12-29T01:51:20.892Z,71.40
2022-12-29T01:53:02.004Z,71.70
2022-12-29T01:54:42.166Z,71.50
2022-12-29T01:56:22.213Z,71.50
2022-12-29T01:58:05.774Z,71.30
2022-12-29T01:59:48.123Z,71.30
2022-12-29T02:01:23.502Z,71.40
2022-12-29T02:02:57.301Z,71.50
2022-12-29T02:04:34.486Z,71.40
2022-12-29T02:06:19.432Z,71.50
2022-12-29T02:07:54.910Z,71.60
2022-12-29T02:09:28.638Z,71.50
2022-12-29T02:11:02.133Z,71.40
2022-12-29T02:12:35.976Z,71.40
2022-12-29T02:14:12.158Z,71.50
2022-12-29T02:16:03.710Z,71.50
2022-12-29T02:18:01.562Z,71.50
2022-12-29T02:20:39.784Z,71.40
2022-12-29T02:22:26.801Z,71.50
2022-12-29T02:24:51.773Z,71.50
2022-12-29T02:26:51.751Z,71.50
2022-12-29T02:29:21.621Z,71.50
2022-12-29T02:31:11.682Z,71.50
2022-12-29T02:32:56.156Z,72.10
2022-12-29T02:34:47.361Z,71.30
2022-12-29T02:36:35.683Z,71.30
2022-12-29T02:38:21.741Z,71.20
2022-12-29T02:40:07.832Z,71.10
2022-12-29T02:41:56.198Z,71.00
2022-12-29T02:43:41.130Z,71.00
2022-12-29T02:45:23.496Z,71.00
2022-12-29T02:47:07.216Z,70.90
2022-12-29T02:48:47.230Z,70.90
2022-12-29T02:50:28.566Z,70.60
2022-12-29T02:52:07.906Z,70.50
2022-12-29T02:54:05.761Z,70.40
2022-12-29T02:55:39.747Z,70.40
2022-12-29T02:57:29.066Z,70.30
2022-12-29T02:59:02.500Z,70.40
2022-12-29T03:00:43.091Z,70.30
2022-12-29T03:02:52.898Z,70.10
2022-12-29T03:04:41.556Z,70.10
2022-12-29T03:06:37.395Z,70.00
2022-12-29T03:08:24.994Z,69.90
2022-12-29T03:10:09.714Z,69.70
2022-12-29T03:12:11.360Z,69.70
2022-12-29T03:14:09.261Z,69.60
2022-12-29T03:16:04.801Z,69.60
2022-12-29T03:17:52.572Z,69.50
2022-12-29T03:19:31.386Z,69.40
2022-12-29T03:21:11.555Z,69.50
2022-12-29T03:22:50.450Z,69.50
2022-12-29T03:24:33.709Z,69.40
2022-12-29T03:26:12.892Z,69.40
2022-12-29T03:27:52.397Z,69.20
2022-12-29T03:29:29.287Z,69.00
2022-12-29T03:31:06.443Z,68.90
2022-12-29T03:32:49.130Z,68.80
2022-12-29T03:34:25.771Z,68.70
2022-12-29T03:36:05.340Z,68.70
2022-12-29T03:37:43.357Z,68.60
2022-12-29T03:39:18.609Z,68.60
2022-12-29T03:40:58.662Z,68.60
2022-12-29T03:42:38.410Z,68.60
2022-12-29T03:44:13.116Z,68.50
2022-12-29T03:45:46.422Z,68.50
2022-12-29T03:47:18.769Z,68.40
2022-12-29T03:48:55.156Z,68.40
2022-12-29T03:50:28.511Z,68.30
2022-12-29T03:52:00.896Z,68.30
2022-12-29T03:53:35.563Z,68.30
2022-12-29T03:55:10.812Z,68.40
2022-12-29T03:56:44.364Z,68.60
2022-12-29T03:58:18.473Z,68.50
2022-12-29T04:00:02.751Z,68.70
2022-12-29T04:01:56.907Z,68.80
2022-12-29T04:03:30.416Z,69.00
2022-12-29T04:05:03.886Z,69.00
2022-12-29T04:06:37.228Z,68.90
2022-12-29T04:08:14.118Z,69.00
2022-12-29T04:09:47.579Z,69.20
2022-12-29T04:11:31.364Z,69.00
2022-12-29T04:13:07.012Z,69.00
2022-12-29T04:14:40.761Z,69.20
2022-12-29T04:16:14.414Z,69.10
2022-12-29T04:17:49.929Z,69.30
2022-12-29T04:19:23.702Z,69.20
2022-12-29T04:21:03.459Z,69.40
2022-12-29T04:22:39.590Z,69.20
2022-12-29T04:24:13.921Z,69.30
2022-12-29T04:25:49.201Z,69.20
2022-12-29T04:27:22.895Z,69.40
2022-12-29T04:29:11.377Z,68.90
2022-12-29T04:30:56.226Z,68.90
2022-12-29T04:32:32.615Z,69.10
2022-12-29T04:34:07.315Z,68.90
2022-12-29T04:35:39.650Z,68.80
2022-12-29T04:37:13.220Z,68.90
2022-12-29T04:38:46.779Z,68.90
2022-12-29T04:40:20.708Z,68.80
2022-12-29T04:41:54.382Z,68.70
2022-12-29T04:43:29.145Z,68.80
2022-12-29T04:45:19.667Z,69.10
2022-12-29T04:46:59.254Z,68.90
2022-12-29T04:48:46.176Z,68.70
2022-12-29T04:50:33.991Z,68.60
2022-12-29T04:52:20.330Z,68.40
2022-12-29T04:53:53.601Z,68.00
2022-12-29T04:55:25.977Z,68.40
2022-12-29T04:56:59.320Z,68.00
2022-12-29T04:58:32.736Z,68.20
2022-12-29T05:00:09.707Z,68.20
2022-12-29T05:01:44.356Z,68.60
2022-12-29T05:03:17.382Z,68.50
2022-12-29T05:04:52.100Z,68.50
2022-12-29T05:06:27.530Z,68.50
2022-12-29T05:08:00.862Z,68.50
2022-12-29T05:09:34.096Z,68.50
2022-12-29T05:11:08.059Z,68.40
2022-12-29T05:12:41.586Z,68.50
2022-12-29T05:14:14.808Z,68.40
2022-12-29T05:15:52.797Z,68.40
2022-12-29T05:17:27.221Z,68.60
2022-12-29T05:19:00.626Z,68.50
2022-12-29T05:20:33.907Z,68.60
2022-12-29T05:22:08.739Z,68.30
2022-12-29T05:23:41.956Z,68.40
2022-12-29T05:25:15.196Z,68.40
2022-12-29T05:27:00.842Z,68.30
2022-12-29T05:28:44.352Z,68.40
2022-12-29T05:30:20.558Z,68.20
2022-12-29T05:31:53.999Z,68.20
2022-12-29T05:33:28.076Z,68.00
2022-12-29T05:35:01.850Z,67.90
2022-12-29T05:36:38.240Z,67.80
2022-12-29T05:38:15.187Z,67.70
2022-12-29T05:39:48.149Z,67.80
2022-12-29T05:41:21.711Z,67.60
2022-12-29T05:43:14.866Z,67.60
2022-12-29T05:45:10.884Z,67.50
2022-12-29T05:46:58.361Z,67.50
2022-12-29T05:48:51.574Z,67.20
2022-12-29T05:50:32.359Z,67.30
2022-12-29T05:52:15.281Z,67.30
2022-12-29T05:53:49.962Z,67.30
2022-12-29T05:55:24.062Z,67.00
2022-12-29T05:56:59.969Z,67.00
2022-12-29T05:58:34.067Z,66.70
2022-12-29T06:00:10.271Z,66.60
2022-12-29T06:01:53.856Z,66.60
2022-12-29T06:03:27.351Z,66.60
2022-12-29T06:05:01.117Z,66.40
2022-12-29T06:06:35.296Z,66.40
2022-12-29T06:08:09.845Z,66.40
2022-12-29T06:09:44.513Z,66.40
2022-12-29T06:11:17.802Z,66.40
2022-12-29T06:12:57.172Z,66.30
2022-12-29T06:14:30.761Z,66.10
2022-12-29T06:16:06.293Z,65.90
2022-12-29T06:17:40.031Z,65.80
2022-12-29T06:19:13.517Z,65.80
2022-12-29T06:20:47.765Z,65.70
2022-12-29T06:22:22.861Z,65.60
2022-12-29T06:23:56.499Z,65.50
2022-12-29T06:25:33.322Z,65.40
2022-12-29T06:27:07.109Z,65.10
2022-12-29T06:28:40.736Z,65.10
2022-12-29T06:30:15.850Z,65.00
2022-12-29T06:31:52.033Z,65.20
2022-12-29T06:33:25.382Z,65.00
2022-12-29T06:35:00.255Z,65.00
2022-12-29T06:36:33.545Z,65.00
2022-12-29T06:38:07.536Z,64.70
2022-12-29T06:39:40.907Z,65.70
2022-12-29T06:41:19.547Z,64.70
2022-12-29T06:43:12.879Z,64.70
2022-12-29T06:45:01.613Z,64.70
2022-12-29T06:46:35.279Z,64.80
2022-12-29T06:48:09.504Z,64.80
2022-12-29T06:49:43.059Z,64.80
2022-12-29T06:51:16.343Z,64.60
2022-12-29T06:52:49.684Z,64.50
2022-12-29T06:54:23.023Z,64.20
2022-12-29T06:55:57.550Z,64.10
2022-12-29T06:57:30.884Z,64.20
2022-12-29T06:59:04.342Z,64.30
2022-12-29T07:00:39.148Z,64.10
2022-12-29T07:02:13.299Z,63.90
2022-12-29T07:03:46.832Z,63.90
2022-12-29T07:05:22.030Z,64.10
2022-12-29T07:06:57.083Z,64.00
2022-12-29T07:08:30.421Z,63.90
2022-12-29T07:10:04.699Z,63.70
2022-12-29T07:11:39.054Z,63.80
2022-12-29T07:13:12.522Z,63.80
2022-12-29T07:14:49.606Z,63.70
2022-12-29T07:16:24.374Z,63.70
2022-12-29T07:17:57.608Z,63.50
2022-12-29T07:19:30.997Z,63.20
2022-12-29T07:21:04.991Z,63.40
2022-12-29T07:22:39.526Z,63.40
2022-12-29T07:24:12.789Z,63.20
2022-12-29T07:25:45.982Z,63.20
2022-12-29T07:27:19.509Z,63.40
2022-12-29T07:28:53.619Z,63.50
2022-12-29T07:30:26.839Z,63.60
2022-12-29T07:32:01.460Z,63.80
2022-12-29T07:33:36.076Z,63.90
2022-12-29T07:35:10.694Z,64.40
2022-12-29T07:36:43.892Z,64.60
2022-12-29T07:38:18.560Z,64.40
2022-12-29T07:39:51.942Z,64.60
2022-12-29T07:41:25.200Z,64.70
2022-12-29T07:42:58.380Z,64.80
2022-12-29T07:44:39.518Z,64.90
2022-12-29T07:46:54.623Z,65.10
2022-12-29T07:48:27.782Z,65.30
2022-12-29T07:50:01.245Z,65.40
2022-12-29T07:51:33.644Z,65.30
2022-12-29T07:53:06.885Z,66.30
2022-12-29T07:54:40.098Z,65.70
2022-12-29T07:56:13.377Z,65.50
2022-12-29T07:57:46.936Z,65.50
2022-12-29T07:59:20.504Z,65.60
2022-12-29T08:00:56.194Z,65.60
2022-12-29T08:02:30.688Z,65.90
2022-12-29T08:04:06.943Z,65.50
2022-12-29T08:05:40.581Z,66.10
2022-12-29T08:07:13.942Z,66.00
2022-12-29T08:08:47.100Z,65.90
2022-12-29T08:10:20.551Z,66.10
2022-12-29T08:11:53.936Z,66.10
2022-12-29T08:13:27.253Z,66.20
2022-12-29T08:15:07.519Z,66.10
2022-12-29T08:16:41.989Z,66.20
2022-12-29T08:18:16.153Z,66.10
2022-12-29T08:19:50.883Z,66.00
2022-12-29T08:21:24.970Z,66.10
2022-12-29T08:22:58.193Z,66.00
2022-12-29T08:24:31.470Z,65.70
2022-12-29T08:26:07.173Z,65.60
2022-12-29T08:27:40.604Z,65.70
2022-12-29T08:29:16.772Z,65.70
2022-12-29T08:30:50.146Z,65.70
2022-12-29T08:32:23.888Z,65.60
2022-12-29T08:33:57.413Z,65.90
2022-12-29T08:35:32.102Z,65.70
2022-12-29T08:37:05.578Z,65.50
2022-12-29T08:38:38.890Z,65.30
2022-12-29T08:40:12.969Z,65.30
2022-12-29T08:41:46.465Z,65.30
2022-12-29T08:43:20.259Z,64.90
2022-12-29T08:44:53.704Z,64.40
2022-12-29T08:46:27.062Z,63.90
2022-12-29T08:48:00.455Z,63.80
2022-12-29T08:49:34.219Z,63.90
2022-12-29T08:51:09.349Z,64.00
2022-12-29T08:52:42.568Z,63.90
2022-12-29T08:54:15.971Z,63.90
2022-12-29T08:56:02.403Z,63.90
2022-12-29T08:57:42.283Z,64.30
2022-12-29T08:59:22.320Z,64.20
2022-12-29T09:00:56.557Z,63.90
2022-12-29T09:02:29.962Z,64.10
2022-12-29T09:04:14.783Z,64.10
2022-12-29T09:05:51.077Z,64.00
2022-12-29T09:07:26.522Z,63.90
2022-12-29T09:08:59.853Z,63.90
2022-12-29T09:10:33.184Z,63.90
2022-12-29T09:12:21.502Z,63.90
2022-12-29T09:13:55.767Z,63.80
2022-12-29T09:15:29.161Z,63.90
2022-12-29T09:17:20.032Z,63.80
2022-12-29T09:18:53.503Z,63.80
2022-12-29T09:20:26.950Z,63.60
2022-12-29T09:22:00.224Z,63.60
2022-12-29T09:23:36.079Z,63.70
2022-12-29T09:25:11.050Z,63.70
2022-12-29T09:26:47.084Z,63.50
2022-12-29T09:28:20.730Z,63.30
2022-12-29T09:29:54.130Z,63.10
2022-12-29T09:31:27.398Z,62.70
2022-12-29T09:33:01.957Z,62.70
2022-12-29T09:34:36.237Z,62.50
2022-12-29T09:36:11.169Z,62.50
2022-12-29T09:37:45.298Z,62.20
2022-12-29T09:39:20.096Z,62.40
2022-12-29T09:40:58.143Z,61.90
2022-12-29T09:42:40.755Z,61.90
2022-12-29T09:44:22.858Z,61.30
2022-12-29T09:46:10.350Z,61.40
2022-12-29T09:47:47.054Z,61.20
2022-12-29T09:49:29.686Z,61.20
2022-12-29T09:51:11.252Z,60.80
2022-12-29T09:52:51.289Z,60.80
2022-12-29T09:55:00.917Z,60.90
2022-12-29T09:56:42.188Z,60.20
2022-12-29T09:58:24.982Z,60.60
2022-12-29T10:00:05.321Z,60.60
2022-12-29T10:02:35.144Z,61.00
2022-12-29T10:04:09.345Z,60.60
2022-12-29T10:05:54.634Z,60.60
2022-12-29T10:07:40.647Z,60.50
2022-12-29T10:09:23.522Z,60.40
2022-12-29T10:11:01.506Z,60.20
2022-12-29T10:12:57.025Z,60.30
2022-12-29T10:14:53.881Z,60.30
2022-12-29T10:16:41.101Z,60.30
2022-12-29T10:18:39.966Z,59.70
2022-12-29T10:20:33.425Z,59.80
2022-12-29T10:22:26.371Z,59.90
2022-12-29T10:24:06.542Z,59.90
2022-12-29T10:25:43.496Z,59.60
2022-12-29T10:27:19.344Z,59.50
2022-12-29T10:28:58.766Z,59.30
2022-12-29T10:30:35.309Z,59.10
2022-12-29T10:32:21.363Z,59.20
2022-12-29T10:34:04.023Z,59.10
2022-12-29T10:35:41.523Z,59.00
2022-12-29T10:37:33.996Z,59.10
2022-12-29T10:39:18.643Z,59.20
2022-12-29T10:40:59.429Z,59.10
2022-12-29T10:42:41.643Z,58.90
2022-12-29T10:44:19.888Z,58.60
2022-12-29T10:45:56.485Z,58.30
2022-12-29T10:47:36.154Z,58.30
2022-12-29T10:49:21.740Z,58.30
2022-12-29T10:51:02.173Z,58.30
2022-12-29T10:52:39.951Z,58.30
2022-12-29T10:54:21.812Z,58.40
2022-12-29T10:55:57.572Z,58.20
2022-12-29T10:57:36.080Z,58.00
2022-12-29T10:59:21.132Z,58.10
2022-12-29T11:00:56.375Z,58.00
2022-12-29T11:03:10.537Z,57.90
2022-12-29T11:04:58.253Z,57.40
2022-12-29T11:06:32.961Z,57.40
2022-12-29T11:08:14.159Z,57.50
2022-12-29T11:09:49.016Z,57.20
2022-12-29T11:11:28.278Z,57.40
2022-12-29T11:13:04.706Z,57.10
2022-12-29T11:14:38.999Z,57.10
2022-12-29T11:16:14.647Z,57.10
2022-12-29T11:17:50.728Z,57.10
2022-12-29T11:19:26.720Z,57.10
2022-12-29T11:21:04.084Z,56.90
2022-12-29T11:22:37.743Z,56.90
2022-12-29T11:24:24.121Z,57.10
2022-12-29T11:26:17.026Z,56.90
2022-12-29T11:27:59.006Z,56.80
2022-12-29T11:29:40.838Z,56.90
2022-12-29T11:31:19.685Z,56.70
2022-12-29T11:32:54.911Z,56.90
2022-12-29T11:34:34.445Z,57.10
2022-12-29T11:36:15.250Z,57.20
2022-12-29T11:37:57.744Z,56.70
2022-12-29T11:39:38.784Z,56.70
2022-12-29T11:41:21.077Z,56.60
2022-12-29T11:42:58.451Z,56.60
2022-12-29T11:44:39.228Z,56.50
2022-12-29T11:46:20.706Z,56.40
2022-12-29T11:47:58.409Z,56.40
2022-12-29T11:49:31.838Z,56.50
2022-12-29T11:51:05.756Z,56.70
2022-12-29T11:52:41.973Z,56.60
2022-12-29T11:54:23.616Z,56.50
2022-12-29T11:55:59.298Z,56.40
2022-12-29T11:57:35.451Z,56.50
2022-12-29T11:59:38.891Z,56.50
2022-12-29T12:01:18.913Z,56.30
2022-12-29T12:03:01.037Z,56.40
2022-12-29T12:04:39.845Z,56.70
2022-12-29T12:06:21.881Z,56.60
2022-12-29T12:08:07.420Z,56.60
2022-12-29T12:09:52.574Z,56.50
2022-12-29T12:11:37.180Z,56.60
2022-12-29T12:13:24.655Z,56.70
2022-12-29T12:15:01.518Z,56.50
2022-12-29T12:16:52.719Z,56.50
2022-12-29T12:18:40.242Z,56.40
2022-12-29T12:20:23.877Z,56.30
2022-12-29T12:22:09.977Z,56.40
2022-12-29T12:24:16.013Z,56.40
2022-12-29T12:26:00.947Z,56.10
2022-12-29T12:27:43.121Z,56.20
2022-12-29T12:29:26.846Z,56.20
2022-12-29T12:31:03.439Z,56.50
2022-12-29T12:32:48.690Z,56.40
2022-12-29T12:34:29.904Z,56.40
2022-12-29T12:36:29.492Z,56.50
2022-12-29T12:38:22.222Z,56.00
2022-12-29T12:40:21.743Z,56.00
2022-12-29T12:42:15.664Z,56.50
2022-12-29T12:43:55.523Z,55.80
2022-12-29T12:45:46.114Z,55.90
2022-12-29T12:47:48.745Z,55.90
2022-12-29T12:50:07.812Z,55.80
2022-12-29T12:52:02.944Z,55.80
2022-12-29T12:53:58.943Z,56.10
2022-12-29T12:55:52.965Z,56.00
2022-12-29T12:57:45.402Z,55.90
2022-12-29T12:59:37.027Z,55.80
2022-12-29T13:01:35.412Z,55.80
2022-12-29T13:03:19.238Z,55.80
2022-12-29T13:05:27.116Z,56.10
2022-12-29T13:07:16.405Z,56.00
2022-12-29T13:09:38.549Z,56.30
2022-12-29T13:11:27.014Z,55.70
2022-12-29T13:13:36.614Z,55.70
2022-12-29T13:15:30.116Z,55.50
2022-12-29T13:17:16.440Z,55.70
2022-12-29T13:18:59.729Z,56.10
2022-12-29T13:20:44.782Z,56.10
2022-12-29T13:22:26.773Z,56.20
2022-12-29T13:24:18.428Z,56.30
2022-12-29T13:26:06.807Z,56.10
2022-12-29T13:27:53.495Z,56.20
2022-12-29T13:29:38.089Z,56.10
2022-12-29T13:31:20.405Z,56.10
2022-12-29T13:33:06.877Z,55.90
2022-12-29T13:34:53.111Z,56.00
2022-12-29T13:36:32.698Z,56.10
2022-12-29T13:38:13.375Z,56.20
2022-12-29T13:39:51.856Z,56.40
2022-12-29T13:41:35.770Z,56.30
2022-12-29T13:43:11.637Z,56.30
2022-12-29T13:44:50.728Z,56.10
2022-12-29T13:46:42.871Z,56.10
2022-12-29T13:48:23.508Z,56.10
2022-12-29T13:50:00.408Z,56.20
2022-12-29T13:51:36.336Z,56.10
2022-12-29T13:53:21.510Z,56.10
2022-12-29T13:55:08.485Z,55.90
2022-12-29T13:56:48.650Z,56.50
2022-12-29T13:58:37.094Z,55.90
2022-12-29T14:00:18.697Z,55.80
2022-12-29T14:02:03.950Z,55.90
2022-12-29T14:03:51.676Z,55.60
2022-12-29T14:05:34.323Z,55.60
2022-12-29T14:07:16.632Z,55.40
2022-12-29T14:08:50.970Z,55.50
2022-12-29T14:10:36.209Z,55.50
2022-12-29T14:12:31.996Z,55.20
2022-12-29T14:14:22.987Z,55.10
2022-12-29T14:15:59.699Z,55.00
2022-12-29T14:17:34.520Z,55.10
2022-12-29T14:19:17.257Z,55.10
2022-12-29T14:20:57.767Z,55.10
2022-12-29T14:22:33.505Z,55.00
2022-12-29T14:24:42.699Z,55.10
2022-12-29T14:26:34.421Z,54.80
2022-12-29T14:28:24.766Z,54.80
2022-12-29T14:29:59.311Z,54.30
2022-12-29T14:31:41.767Z,54.50
2022-12-29T14:33:18.426Z,54.40
2022-12-29T14:34:58.058Z,54.40
2022-12-29T14:36:39.164Z,54.40
2022-12-29T14:38:20.732Z,54.20
2022-12-29T14:40:07.983Z,54.20
2022-12-29T14:41:42.158Z,54.10
2022-12-29T14:43:22.057Z,54.30
2022-12-29T14:45:07.532Z,54.20
2022-12-29T14:47:03.096Z,54.30
2022-12-29T14:48:44.596Z,53.90
2022-12-29T14:50:24.095Z,54.40
2022-12-29T14:52:14.158Z,55.10
2022-12-29T14:53:52.728Z,54.50
2022-12-29T14:55:40.875Z,54.70
2022-12-29T14:57:24.261Z,54.60
2022-12-29T14:59:02.853Z,54.70
2022-12-29T15:00:39.023Z,54.60
2022-12-29T15:02:19.333Z,54.70
2022-12-29T15:03:58.418Z,54.60
2022-12-29T15:05:43.553Z,54.40
2022-12-29T15:07:20.580Z,54.80
2022-12-29T15:09:05.456Z,54.30
2022-12-29T15:10:46.921Z,54.20
2022-12-29T15:12:32.012Z,54.00
2022-12-29T15:14:05.299Z,53.80
2022-12-29T15:15:40.676Z,53.80
2022-12-29T15:17:28.152Z,53.80
2022-12-29T15:19:01.788Z,53.60
2022-12-29T15:20:34.313Z,53.80
2022-12-29T15:22:10.204Z,53.80
2022-12-29T15:23:46.749Z,53.80
2022-12-29T15:25:20.652Z,53.80
2022-12-29T15:26:56.394Z,53.90
2022-12-29T15:28:39.920Z,53.90
2022-12-29T15:30:18.167Z,53.80
2022-12-29T15:31:53.143Z,53.80
2022-12-29T15:33:29.681Z,53.90
2022-12-29T15:35:26.098Z,54.50
2022-12-29T15:37:00.376Z,53.70
2022-12-29T15:38:40.178Z,54.10
2022-12-29T15:40:27.043Z,54.10
2022-12-29T15:42:12.147Z,54.10
2022-12-29T15:44:00.970Z,54.20
2022-12-29T15:45:37.415Z,54.40
2022-12-29T15:47:20.064Z,54.50
2022-12-29T15:48:53.448Z,54.30
2022-12-29T15:50:31.119Z,54.50
2022-12-29T15:52:09.958Z,54.60
2022-12-29T15:53:43.257Z,54.50
2022-12-29T15:55:27.732Z,54.50
2022-12-29T15:57:00.972Z,54.60
2022-12-29T15:58:45.403Z,54.50
2022-12-29T16:00:27.270Z,54.30
2022-12-29T16:02:10.315Z,54.40
2022-12-29T16:03:48.156Z,54.60
2022-12-29T16:05:22.077Z,54.50
2022-12-29T16:06:59.567Z,54.50
2022-12-29T16:08:38.757Z,54.60
2022-12-29T16:10:28.480Z,54.60
2022-12-29T16:12:06.887Z,54.30
2022-12-29T16:13:42.921Z,54.50
2022-12-29T16:15:16.972Z,54.40
2022-12-29T16:16:52.623Z,54.50
2022-12-29T16:18:30.388Z,54.50
2022-12-29T16:20:18.591Z,54.50
2022-12-29T16:21:53.132Z,54.50
2022-12-29T16:23:30.476Z,54.50
2022-12-29T16:25:12.725Z,54.50
2022-12-29T16:26:51.516Z,54.50
2022-12-29T16:28:38.500Z,54.50
2022-12-29T16:30:27.931Z,54.60
2022-12-29T16:32:24.443Z,54.60
2022-12-29T16:33:58.428Z,54.80
2022-12-29T16:35:47.870Z,54.80
2022-12-29T16:37:33.356Z,54.80
2022-12-29T16:39:32.019Z,54.90
2022-12-29T16:41:05.503Z,55.00
2022-12-29T16:42:52.322Z,55.00
2022-12-29T16:44:28.885Z,54.80
2022-12-29T16:46:26.835Z,54.90
2022-12-29T16:48:21.359Z,54.80
2022-12-29T16:50:01.622Z,54.90
2022-12-29T16:51:38.920Z,55.00
2022-12-29T16:53:23.481Z,55.00
2022-12-29T16:55:01.898Z,54.80
2022-12-29T16:56:39.607Z,54.90
2022-12-29T16:58:22.121Z,54.80
2022-12-29T16:59:59.740Z,54.80
2022-12-29T17:01:37.084Z,54.80
2022-12-29T17:03:13.431Z,54.80
2022-12-29T17:04:50.728Z,54.80
2022-12-29T17:06:25.148Z,54.70
2022-12-29T17:08:01.618Z,54.60
2022-12-29T17:09:34.854Z,54.50
2022-12-29T17:11:42.085Z,54.70
2022-12-29T17:13:15.508Z,54.70
2022-12-29T17:14:53.825Z,55.40
2022-12-29T17:16:26.416Z,54.70
2022-12-29T17:18:02.065Z,54.50
2022-12-29T17:19:38.415Z,54.50
2022-12-29T17:21:11.523Z,54.50
2022-12-29T17:22:45.627Z,54.40
2022-12-29T17:24:21.712Z,54.40
2022-12-29T17:25:56.117Z,54.50
2022-12-29T17:27:35.313Z,54.40
2022-12-29T17:29:08.513Z,54.40
2022-12-29T17:30:42.777Z,54.50
2022-12-29T17:32:16.277Z,54.50
2022-12-29T17:33:50.022Z,54.50
2022-12-29T17:35:24.088Z,54.50
2022-12-29T17:36:57.601Z,54.40
2022-12-29T17:38:33.692Z,54.50
2022-12-29T17:40:15.713Z,54.60
2022-12-29T17:41:49.815Z,54.40
2022-12-29T17:43:23.567Z,54.40
2022-12-29T17:44:57.177Z,54.40
2022-12-29T17:46:31.173Z,54.40
2022-12-29T17:48:12.541Z,54.40
2022-12-29T17:49:46.502Z,54.50
2022-12-29T17:51:21.578Z,54.40
2022-12-29T17:53:00.943Z,54.50
2022-12-29T17:54:35.912Z,54.60
2022-12-29T17:56:11.654Z,54.60
2022-12-29T17:57:45.569Z,54.60
2022-12-29T17:59:20.578Z,54.70
2022-12-29T18:00:56.669Z,54.70
2022-12-29T18:02:33.222Z,54.80
2022-12-29T18:04:06.738Z,54.90
2022-12-29T18:05:40.536Z,54.80
2022-12-29T18:07:13.892Z,54.90
2022-12-29T18:08:47.325Z,54.90
2022-12-29T18:10:21.275Z,54.90
2022-12-29T18:11:55.748Z,54.90
2022-12-29T18:13:41.884Z,54.90
2022-12-29T18:15:22.933Z,54.90
2022-12-29T18:16:56.415Z,54.90
2022-12-29T18:18:29.774Z,54.90
2022-12-29T18:20:03.102Z,55.00
2022-12-29T18:21:37.250Z,55.10
2022-12-29T18:23:20.352Z,55.40
2022-12-29T18:24:53.817Z,55.50
2022-12-29T18:26:32.523Z,55.50
2022-12-29T18:28:07.372Z,55.70
2022-12-29T18:29:41.468Z,55.80
2022-12-29T18:31:20.829Z,55.80
2022-12-29T18:32:54.501Z,56.00
2022-12-29T18:34:27.869Z,56.20
2022-12-29T18:36:04.913Z,56.30
2022-12-29T18:37:38.593Z,56.30
2022-12-29T18:39:12.853Z,56.60
2022-12-29T18:40:51.466Z,57.00
2022-12-29T18:42:24.604Z,57.20
2022-12-29T18:44:00.480Z,57.20
2022-12-29T18:45:35.206Z,57.00
2022-12-29T18:47:09.099Z,57.00
2022-12-29T18:48:43.133Z,57.00
2022-12-29T18:50:18.310Z,57.20
2022-12-29T18:51:54.932Z,57.20
2022-12-29T18:53:30.461Z,57.20
2022-12-29T18:55:04.131Z,57.10
2022-12-29T18:56:37.711Z,57.10
2022-12-29T18:58:11.380Z,57.10
2022-12-29T18:59:46.288Z,57.20
2022-12-29T19:01:23.044Z,57.40
2022-12-29T19:02:56.474Z,57.60
2022-12-29T19:04:29.757Z,57.70
2022-12-29T19:06:03.032Z,57.70
2022-12-29T19:07:36.266Z,57.60
2022-12-29T19:09:10.112Z,57.70
2022-12-29T19:10:44.920Z,57.70
2022-12-29T19:12:22.247Z,57.60
2022-12-29T19:13:58.498Z,57.60
2022-12-29T19:15:37.743Z,57.60
2022-12-29T19:17:13.060Z,57.80
2022-12-29T19:18:53.232Z,57.80
2022-12-29T19:20:36.166Z,57.70
2022-12-29T19:22:10.558Z,57.80
2022-12-29T19:23:45.042Z,57.70
2022-12-29T19:25:20.339Z,57.60
2022-12-29T19:26:53.622Z,57.60
2022-12-29T19:28:29.547Z,57.70
2022-12-29T19:30:04.448Z,57.80
2022-12-29T19:31:40.251Z,57.80
2022-12-29T19:33:13.801Z,57.80
2022-12-29T19:34:48.739Z,57.80
2022-12-29T19:36:22.856Z,57.70
2022-12-29T19:37:56.462Z,57.90
2022-12-29T19:39:30.300Z,57.90
2022-12-29T19:41:08.682Z,57.90
2022-12-29T19:42:42.025Z,57.90
2022-12-29T19:44:17.187Z,57.80
2022-12-29T19:45:51.284Z,57.70
2022-12-29T19:47:31.589Z,57.70
2022-12-29T19:49:05.101Z,57.60
2022-12-29T19:50:38.747Z,57.60
2022-12-29T19:52:12.098Z,57.60
2022-12-29T19:53:45.934Z,57.60
2022-12-29T19:55:19.297Z,57.60
2022-12-29T19:56:52.503Z,57.60
2022-12-29T19:58:25.705Z,57.70
2022-12-29T19:59:59.356Z,57.80
2022-12-29T20:01:32.932Z,57.90
2022-12-29T20:03:07.779Z,57.80
2022-12-29T20:04:41.238Z,57.90
2022-12-29T20:06:15.467Z,57.90
2022-12-29T20:07:48.771Z,58.00
2022-12-29T20:09:22.379Z,57.90
2022-12-29T20:11:02.583Z,57.80
2022-12-29T20:12:37.741Z,58.00
2022-12-29T20:14:10.947Z,57.90
2022-12-29T20:15:45.010Z,57.90
2022-12-29T20:17:27.334Z,58.00
2022-12-29T20:19:12.950Z,58.10
2022-12-29T20:20:47.101Z,58.10
2022-12-29T20:22:20.500Z,58.10
2022-12-29T20:23:56.506Z,58.00
2022-12-29T20:25:47.336Z,57.90
2022-12-29T20:27:20.832Z,57.90
2022-12-29T20:28:57.041Z,58.00
2022-12-29T20:30:30.148Z,58.00
2022-12-29T20:32:11.209Z,57.90
2022-12-29T20:33:44.523Z,58.10
2022-12-29T20:35:19.340Z,58.10
2022-12-29T20:36:53.600Z,58.10
2022-12-29T20:38:26.923Z,58.10
2022-12-29T20:40:00.234Z,58.00
2022-12-29T20:41:34.114Z,58.00
2022-12-29T20:43:07.597Z,58.10
2022-12-29T20:44:40.941Z,57.90
2022-12-29T20:46:20.530Z,57.90
2022-12-29T20:47:54.709Z,57.90
2022-12-29T20:49:29.693Z,57.90
2022-12-29T20:51:05.005Z,57.90
2022-12-29T20:52:38.196Z,57.90
2022-12-29T20:54:12.701Z,57.80
2022-12-29T20:55:46.201Z,57.80
2022-12-29T20:57:19.658Z,57.70
2022-12-29T20:59:26.431Z,57.70
2022-12-29T21:00:47.387Z,57.70
2022-12-29T21:02:22.919Z,57.80
2022-12-29T21:03:56.379Z,57.70
2022-12-29T21:05:30.215Z,57.60
2022-12-29T21:07:04.710Z,57.60
2022-12-29T21:08:38.650Z,57.60
2022-12-29T21:10:12.476Z,57.50
2022-12-29T21:11:46.433Z,57.50
2022-12-29T21:13:20.816Z,57.40
2022-12-29T21:14:53.975Z,57.50
2022-12-29T21:16:27.780Z,57.40
2022-12-29T21:18:01.083Z,57.50
2022-12-29T21:19:34.198Z,57.50
2022-12-29T21:21:10.256Z,57.50
2022-12-29T21:22:44.839Z,57.70